Time;durP1;ratioP1;P1;durP2;ratioP2;P2;SDS_P1;SDS_P2;PMS_P1;PMS_P2;Temp;Humidity;BMP_temperature;BMP_pressure;BME280_temperature;BME280_humidity;BME280_pressure;Samples;Min_cycle;Max_cycle;Signal;HPM_P1;HPM_P2
2023/08/21 00:00:06;;;;;;;11.80;3.90;;;15.70;95.80;;;;;;5029352;28;20182;-69
2023/08/21 00:02:31;;;;;;;10.52;3.88;;;15.60;95.50;;;;;;5029573;28;20060;-69
2023/08/21 00:04:57;;;;;;;11.70;3.85;;;15.60;95.40;;;;;;5040178;28;20489;-70
2023/08/21 00:07:22;;;;;;;12.65;3.85;;;15.50;95.30;;;;;;5032187;28;20104;-69
2023/08/21 00:09:48;;;;;;;12.85;4.57;;;15.50;95.40;;;;;;5039395;28;20063;-68
2023/08/21 00:12:13;;;;;;;10.07;4.22;;;15.50;95.70;;;;;;5027045;28;20108;-68
2023/08/21 00:14:39;;;;;;;13.25;4.03;;;15.50;96.10;;;;;;5029688;28;20473;-69
2023/08/21 00:17:04;;;;;;;9.93;3.72;;;15.50;95.80;;;;;;5034929;28;20032;-69
2023/08/21 00:19:30;;;;;;;11.65;4.15;;;15.40;96.10;;;;;;5036360;28;20037;-69
2023/08/21 00:21:56;;;;;;;8.77;3.95;;;15.40;96.10;;;;;;5031219;28;20470;-69
2023/08/21 00:24:21;;;;;;;10.63;3.47;;;15.40;96.10;;;;;;5029980;28;20041;-69
2023/08/21 00:26:47;;;;;;;10.52;3.85;;;15.40;96.10;;;;;;5031927;28;20048;-69
2023/08/21 00:29:12;;;;;;;14.55;3.80;;;15.30;95.80;;;;;;5025980;28;20021;-68
2023/08/21 00:31:38;;;;;;;11.35;3.55;;;15.30;95.70;;;;;;5028326;28;20045;-69
2023/08/21 00:34:03;;;;;;;9.82;3.65;;;15.20;95.60;;;;;;5026871;28;20477;-69
2023/08/21 00:36:29;;;;;;;11.13;4.07;;;15.20;95.70;;;;;;5034641;28;20035;-69
2023/08/21 00:38:54;;;;;;;9.60;4.28;;;15.30;96.30;;;;;;5025976;28;20040;-69
2023/08/21 00:41:20;;;;;;;14.10;5.00;;;15.20;96.20;;;;;;5022848;28;20381;-69
2023/08/21 00:43:45;;;;;;;12.32;4.47;;;15.20;96.50;;;;;;5027240;28;20479;-70
2023/08/21 00:46:11;;;;;;;11.23;4.93;;;15.20;96.20;;;;;;5023039;28;20034;-68
2023/08/21 00:48:37;;;;;;;14.95;5.00;;;15.20;96.40;;;;;;5034070;28;20041;-69
2023/08/21 00:51:05;;;;;;;10.25;4.70;;;15.10;96.30;;;;;;5037690;28;20111;-69
2023/08/21 00:53:30;;;;;;;12.77;4.53;;;15.10;95.80;;;;;;5032890;28;20028;-68
2023/08/21 00:55:56;;;;;;;10.57;4.18;;;15.00;95.70;;;;;;5033869;28;20034;-69
2023/08/21 00:58:22;;;;;;;11.95;4.00;;;15.00;95.70;;;;;;5030100;28;20378;-69
2023/08/21 01:00:49;;;;;;;9.57;4.35;;;15.00;95.90;;;;;;5037462;28;20068;-69
2023/08/21 01:03:15;;;;;;;7.38;4.07;;;15.00;96.30;;;;;;5019270;28;20056;-69
2023/08/21 01:05:41;;;;;;;12.10;4.70;;;15.00;96.10;;;;;;5034304;28;20033;-69
2023/08/21 01:08:35;;;;;;;11.20;4.32;;;15.00;96.40;;;;;;5029449;28;20401;-70
2023/08/21 01:11:17;;;;;;;10.80;4.68;;;14.90;96.30;;;;;;5029585;28;20853;-69
2023/08/21 01:13:52;;;;;;;8.95;5.07;;;14.90;96.30;;;;;;5022864;28;20378;-69
2023/08/21 01:16:19;;;;;;;8.77;4.35;;;14.80;96.20;;;;;;5030394;28;20036;-69
2023/08/21 01:18:48;;;;;;;9.07;4.35;;;14.80;96.10;;;;;;5022711;28;20033;-69
2023/08/21 01:21:14;;;;;;;13.25;4.72;;;14.80;96.00;;;;;;5027358;28;20030;-69
2023/08/21 01:23:42;;;;;;;9.43;4.75;;;14.80;96.10;;;;;;5029873;28;20053;-69
2023/08/21 01:26:07;;;;;;;11.35;5.20;;;14.80;96.00;;;;;;5029113;28;20045;-70
2023/08/21 01:28:34;;;;;;;12.20;4.78;;;14.70;96.20;;;;;;5035384;28;20483;-69
2023/08/21 01:31:19;;;;;;;10.75;4.93;;;14.70;96.00;;;;;;5025127;28;20470;-69
2023/08/21 01:33:47;;;;;;;9.85;5.30;;;14.70;96.10;;;;;;5023862;28;20033;-69
2023/08/21 01:36:13;;;;;;;15.77;5.45;;;14.70;96.40;;;;;;5027781;28;20517;-69
2023/08/21 01:38:39;;;;;;;13.55;5.28;;;14.60;96.40;;;;;;5024793;28;20112;-69
2023/08/21 01:41:04;;;;;;;16.38;5.45;;;14.60;96.50;;;;;;5020493;28;20377;-69
2023/08/21 01:43:30;;;;;;;9.68;4.90;;;14.60;96.60;;;;;;5030050;28;20367;-70
2023/08/21 01:45:55;;;;;;;14.57;5.43;;;14.60;96.50;;;;;;5031006;28;20503;-69
2023/08/21 01:48:21;;;;;;;15.02;4.90;;;14.60;96.20;;;;;;5025613;28;20860;-69
2023/08/21 01:50:46;;;;;;;12.77;5.45;;;14.50;96.20;;;;;;5033107;28;20041;-69
2023/08/21 01:53:12;;;;;;;10.75;4.68;;;14.50;96.10;;;;;;5031294;28;20033;-69
2023/08/21 01:55:37;;;;;;;10.85;4.75;;;14.50;96.40;;;;;;5025713;28;20120;-69
2023/08/21 01:58:03;;;;;;;14.27;4.95;;;14.50;96.60;;;;;;5026964;28;20397;-70
2023/08/21 02:00:28;;;;;;;11.02;4.47;;;14.50;96.40;;;;;;5039938;28;20025;-69
2023/08/21 02:02:54;;;;;;;15.80;5.07;;;14.40;96.30;;;;;;5034128;28;20041;-69
2023/08/21 02:05:19;;;;;;;10.63;5.32;;;14.40;96.30;;;;;;5030846;28;20071;-69
2023/08/21 02:07:45;;;;;;;13.93;5.88;;;14.40;96.30;;;;;;5032929;28;20057;-69
2023/08/21 02:10:11;;;;;;;12.90;5.97;;;14.30;96.30;;;;;;5041906;28;20026;-69
2023/08/21 02:12:36;;;;;;;11.65;5.45;;;14.30;96.50;;;;;;5024163;28;20029;-69
2023/08/21 02:15:02;;;;;;;13.73;5.50;;;14.40;96.70;;;;;;5038197;28;20116;-69
2023/08/21 02:17:28;;;;;;;13.77;5.28;;;14.30;97.00;;;;;;5036284;28;20086;-70
2023/08/21 02:19:53;;;;;;;12.07;5.57;;;14.40;97.20;;;;;;5040989;28;20033;-69
2023/08/21 02:22:19;;;;;;;10.15;5.03;;;14.30;97.00;;;;;;5029132;28;20049;-69
2023/08/21 02:24:44;;;;;;;10.85;5.78;;;14.30;96.90;;;;;;5038184;28;20054;-69
2023/08/21 02:27:10;;;;;;;14.68;6.75;;;14.30;97.10;;;;;;5028546;28;20116;-69
2023/08/21 02:29:35;;;;;;;16.95;7.15;;;14.30;97.30;;;;;;5024125;28;20029;-68
2023/08/21 02:32:00;;;;;;;17.17;8.27;;;14.30;97.10;;;;;;5041253;28;20041;-70
2023/08/21 02:34:26;;;;;;;15.75;8.60;;;14.40;97.70;;;;;;5032286;28;20059;-69
2023/08/21 02:36:52;;;;;;;13.20;8.60;;;14.30;97.60;;;;;;5033371;28;20359;-69
2023/08/21 02:39:18;;;;;;;19.42;9.80;;;14.50;97.90;;;;;;5030884;28;20381;-69
2023/08/21 02:41:43;;;;;;;18.58;10.15;;;14.50;97.90;;;;;;5036463;28;20036;-68
2023/08/21 02:44:09;;;;;;;19.38;12.00;;;14.50;98.00;;;;;;5021007;28;20038;-69
2023/08/21 02:46:36;;;;;;;20.48;11.35;;;14.50;98.20;;;;;;5029509;28;20037;-69
2023/08/21 02:49:01;;;;;;;16.33;9.65;;;14.50;98.10;;;;;;5025137;28;20432;-68
2023/08/21 02:51:27;;;;;;;19.35;10.38;;;14.40;97.80;;;;;;5031275;28;20307;-69
2023/08/21 02:53:52;;;;;;;19.73;9.93;;;14.40;97.90;;;;;;5022033;28;20042;-69
2023/08/21 02:56:18;;;;;;;17.77;9.88;;;14.40;97.90;;;;;;5023953;28;20131;-69
2023/08/21 02:58:44;;;;;;;15.43;9.75;;;14.40;97.90;;;;;;5021118;28;20067;-69
2023/08/21 03:01:09;;;;;;;18.33;10.13;;;14.40;97.90;;;;;;5028970;28;20026;-69
2023/08/21 03:03:35;;;;;;;17.48;8.95;;;14.40;97.90;;;;;;5023551;28;20037;-69
2023/08/21 03:06:01;;;;;;;18.35;9.65;;;14.30;98.00;;;;;;5034681;28;20029;-69
2023/08/21 03:08:27;;;;;;;17.08;9.82;;;14.30;98.00;;;;;;5029301;28;20091;-69
2023/08/21 03:10:52;;;;;;;15.77;9.27;;;14.20;97.90;;;;;;5035149;28;20508;-69
2023/08/21 03:13:18;;;;;;;15.98;9.00;;;14.20;97.80;;;;;;5026268;28;20541;-69
2023/08/21 03:15:43;;;;;;;15.27;9.07;;;14.20;97.80;;;;;;5036756;28;20029;-69
2023/08/21 03:18:09;;;;;;;17.35;9.38;;;14.20;97.90;;;;;;5031292;28;20402;-69
2023/08/21 03:20:34;;;;;;;16.63;9.15;;;14.20;97.90;;;;;;5022803;28;20042;-69
2023/08/21 03:23:00;;;;;;;17.70;9.75;;;14.10;97.80;;;;;;5033715;28;20045;-69
2023/08/21 03:25:27;;;;;;;19.88;9.30;;;14.10;97.70;;;;;;5041946;28;20049;-69
2023/08/21 03:27:52;;;;;;;13.40;8.48;;;14.10;97.60;;;;;;5030994;28;20026;-70
2023/08/21 03:30:18;;;;;;;14.35;8.70;;;14.00;97.70;;;;;;5027399;28;20033;-69
2023/08/21 03:32:43;;;;;;;16.50;8.50;;;14.00;97.70;;;;;;5032224;28;20033;-69
2023/08/21 03:35:09;;;;;;;15.68;8.57;;;14.00;97.50;;;;;;5029937;28;20117;-70
2023/08/21 03:37:34;;;;;;;17.38;8.82;;;14.00;97.30;;;;;;5030017;28;20103;-69
2023/08/21 03:40:02;;;;;;;11.68;7.72;;;13.90;97.20;;;;;;5029870;28;20044;-69
2023/08/21 03:42:28;;;;;;;18.83;8.98;;;14.00;97.40;;;;;;5028456;28;20072;-69
2023/08/21 03:44:53;;;;;;;16.33;7.97;;;13.90;97.50;;;;;;5024528;28;20034;-69
2023/08/21 03:47:18;;;;;;;18.65;8.45;;;13.90;97.70;;;;;;5035448;28;20035;-69
2023/08/21 03:49:44;;;;;;;13.07;8.38;;;13.90;97.50;;;;;;5040140;28;20366;-70
2023/08/21 03:52:09;;;;;;;15.15;9.18;;;13.80;97.20;;;;;;5033063;28;20034;-69
2023/08/21 03:54:35;;;;;;;16.35;9.88;;;13.80;97.20;;;;;;5032771;28;20505;-68
2023/08/21 03:57:00;;;;;;;13.85;9.27;;;13.80;97.40;;;;;;5039905;28;20107;-69
2023/08/21 03:59:27;;;;;;;23.98;10.65;;;13.80;97.70;;;;;;5029536;28;20087;-68
2023/08/21 04:01:53;;;;;;;14.85;9.52;;;13.80;97.70;;;;;;5028847;28;20037;-69
2023/08/21 04:04:19;;;;;;;19.25;10.93;;;13.80;97.80;;;;;;5023951;28;20041;-69
2023/08/21 04:06:44;;;;;;;19.60;11.30;;;13.80;97.90;;;;;;5036497;28;20041;-70
2023/08/21 04:09:10;;;;;;;21.08;11.52;;;13.80;97.80;;;;;;5024069;28;20036;-69
2023/08/21 04:11:36;;;;;;;21.80;12.55;;;13.70;97.70;;;;;;5024218;28;20548;-69
2023/08/21 04:14:01;;;;;;;26.02;12.93;;;13.80;97.70;;;;;;5015303;28;20116;-70
2023/08/21 04:16:28;;;;;;;32.08;15.95;;;13.80;97.60;;;;;;5023288;28;20064;-69
2023/08/21 04:18:53;;;;;;;41.42;18.92;;;13.80;97.70;;;;;;5026708;28;20030;-69
2023/08/21 04:21:19;;;;;;;31.70;16.10;;;13.80;97.80;;;;;;5025557;28;20453;-70
2023/08/21 04:23:46;;;;;;;32.88;18.00;;;13.80;97.80;;;;;;5034747;28;20045;-70
2023/08/21 04:26:11;;;;;;;35.80;19.02;;;13.80;97.70;;;;;;5025899;28;20042;-70
2023/08/21 04:28:37;;;;;;;32.30;17.00;;;13.90;98.10;;;;;;5027468;28;20505;-70
2023/08/21 04:31:07;;;;;;;35.10;18.92;;;13.90;98.20;;;;;;5032402;28;20030;-72
2023/08/21 04:33:33;;;;;;;32.58;18.00;;;14.00;98.40;;;;;;5033718;28;20029;-73
2023/08/21 04:35:59;;;;;;;31.25;18.85;;;13.90;98.20;;;;;;5028655;28;20022;-73
2023/08/21 04:38:25;;;;;;;39.22;19.67;;;14.00;98.30;;;;;;5030547;28;20439;-72
2023/08/21 04:40:51;;;;;;;39.58;19.50;;;14.00;98.50;;;;;;5026840;28;20072;-73
2023/08/21 04:43:16;;;;;;;43.83;21.35;;;14.10;98.70;;;;;;5023446;28;20041;-71
2023/08/21 04:45:54;;;;;;;48.22;21.83;;;14.10;98.70;;;;;;5025440;28;20123;-71
2023/08/21 04:48:20;;;;;;;37.53;19.30;;;14.10;98.50;;;;;;5027685;28;20037;-71
2023/08/21 04:50:46;;;;;;;34.67;20.40;;;14.10;98.50;;;;;;5020408;28;20021;-71
2023/08/21 04:53:12;;;;;;;38.65;19.42;;;14.10;98.40;;;;;;5024468;28;20138;-71
2023/08/21 04:55:40;;;;;;;34.30;19.63;;;14.10;98.30;;;;;;5025534;28;20044;-71
2023/08/21 04:58:06;;;;;;;36.72;19.35;;;14.10;98.30;;;;;;5026429;28;20028;-73
2023/08/21 05:00:31;;;;;;;41.83;20.90;;;14.10;98.20;;;;;;5030034;28;21122;-73
2023/08/21 05:02:57;;;;;;;40.45;21.75;;;14.10;98.20;;;;;;5033082;28;20072;-73
2023/08/21 05:05:23;;;;;;;37.25;21.92;;;14.20;98.30;;;;;;5037615;28;20462;-73
2023/08/21 05:07:48;;;;;;;47.30;22.00;;;14.20;98.30;;;;;;5031653;28;20041;-72
2023/08/21 05:10:13;;;;;;;41.45;21.90;;;14.30;98.40;;;;;;5036868;28;20033;-72
2023/08/21 05:12:39;;;;;;;42.03;22.58;;;14.30;98.40;;;;;;5024081;28;20521;-72
2023/08/21 05:15:05;;;;;;;48.88;23.65;;;14.40;98.50;;;;;;5031095;28;20029;-72
2023/08/21 05:17:30;;;;;;;52.80;26.90;;;14.50;98.60;;;;;;5030357;28;20095;-72
2023/08/21 05:19:56;;;;;;;44.25;24.38;;;14.50;98.80;;;;;;5020810;28;20040;-72
2023/08/21 05:22:22;;;;;;;49.40;25.58;;;14.60;98.80;;;;;;5033377;28;20436;-71
2023/08/21 05:24:47;;;;;;;56.05;27.15;;;14.70;98.90;;;;;;5028833;28;20511;-72
2023/08/21 05:27:13;;;;;;;57.20;26.58;;;14.80;99.00;;;;;;5024481;28;20381;-71
2023/08/21 05:29:38;;;;;;;49.92;26.45;;;14.80;99.00;;;;;;5025002;28;20064;-70
2023/08/21 05:32:04;;;;;;;58.58;28.55;;;14.80;99.00;;;;;;5030495;28;20043;-70
2023/08/21 05:34:30;;;;;;;55.92;27.58;;;14.90;99.10;;;;;;5026632;28;20034;-70
2023/08/21 05:36:56;;;;;;;54.03;26.73;;;15.00;99.20;;;;;;5033228;28;20040;-70
2023/08/21 05:39:21;;;;;;;63.53;27.98;;;15.10;99.20;;;;;;5030638;28;20117;-70
2023/08/21 05:41:47;;;;;;;56.25;28.08;;;15.10;99.10;;;;;;5024361;28;20131;-70
2023/08/21 05:44:12;;;;;;;55.90;26.50;;;15.20;99.10;;;;;;5027543;28;20030;-70
2023/08/21 05:46:38;;;;;;;56.40;25.88;;;15.30;99.20;;;;;;5027125;28;20108;-71
2023/08/21 05:49:03;;;;;;;65.57;28.38;;;15.30;99.20;;;;;;5041245;28;20044;-70
2023/08/21 05:51:29;;;;;;;60.67;28.38;;;15.40;99.10;;;;;;5027900;28;20637;-70
2023/08/21 05:53:55;;;;;;;58.70;28.30;;;15.50;99.10;;;;;;5036977;28;20031;-70
2023/08/21 05:56:21;;;;;;;59.90;26.52;;;15.60;99.20;;;;;;5031780;28;20171;-72
2023/08/21 05:58:46;;;;;;;58.50;27.52;;;15.80;99.10;;;;;;5032607;28;20461;-71
2023/08/21 06:01:12;;;;;;;56.72;26.60;;;15.80;99.00;;;;;;5023219;28;20041;-70
2023/08/21 06:03:38;;;;;;;53.28;26.38;;;16.00;99.10;;;;;;5037363;28;20539;-70
2023/08/21 06:06:03;;;;;;;61.35;26.60;;;16.00;98.90;;;;;;5028106;28;20044;-70
2023/08/21 06:08:28;;;;;;;59.55;26.95;;;16.20;98.80;;;;;;5018706;28;20091;-71
2023/08/21 06:10:54;;;;;;;54.42;25.33;;;16.30;98.60;;;;;;5026812;28;20373;-70
2023/08/21 06:13:20;;;;;;;56.35;25.30;;;16.30;98.40;;;;;;5021068;28;20068;-71
2023/08/21 06:15:45;;;;;;;57.20;24.58;;;16.40;98.30;;;;;;5031057;28;20042;-71
2023/08/21 06:18:11;;;;;;;47.97;19.90;;;16.50;98.30;;;;;;5029105;28;20026;-71
2023/08/21 06:20:37;;;;;;;46.35;18.92;;;16.60;98.20;;;;;;5031725;28;20104;-70
2023/08/21 06:23:02;;;;;;;41.28;17.40;;;16.70;97.70;;;;;;5023405;28;20045;-71
2023/08/21 06:25:30;;;;;;;35.65;15.40;;;16.80;97.20;;;;;;5028271;28;20057;-70
2023/08/21 06:27:55;;;;;;;30.67;13.23;;;16.80;96.90;;;;;;5024584;28;20462;-71
2023/08/21 06:30:21;;;;;;;34.72;12.45;;;17.00;96.80;;;;;;5020159;28;20063;-70
2023/08/21 06:32:46;;;;;;;27.30;11.75;;;17.10;96.40;;;;;;5016059;28;20132;-70
2023/08/21 06:35:13;;;;;;;30.48;11.23;;;17.30;96.40;;;;;;5014768;28;20079;-71
2023/08/21 06:37:39;;;;;;;27.63;10.20;;;17.40;96.30;;;;;;5022762;28;20025;-71
2023/08/21 06:40:05;;;;;;;26.98;10.40;;;17.50;96.10;;;;;;5022508;28;20029;-71
2023/08/21 06:42:31;;;;;;;22.63;9.23;;;17.60;95.70;;;;;;5023821;28;20035;-71
2023/08/21 06:44:56;;;;;;;17.25;8.25;;;17.70;95.70;;;;;;5026385;28;20487;-70
2023/08/21 06:47:22;;;;;;;21.98;8.57;;;17.70;95.60;;;;;;5024650;28;20040;-72
2023/08/21 06:49:47;;;;;;;18.77;7.45;;;17.80;95.40;;;;;;5039616;28;20371;-72
2023/08/21 06:52:13;;;;;;;21.42;6.88;;;17.70;94.20;;;;;;5021167;28;20029;-73
2023/08/21 06:54:38;;;;;;;15.35;5.68;;;17.80;94.30;;;;;;5033265;28;20033;-73
2023/08/21 06:57:04;;;;;;;16.70;5.72;;;17.90;94.00;;;;;;5032128;28;20041;-71
2023/08/21 06:59:29;;;;;;;19.10;5.05;;;18.00;94.10;;;;;;5022349;28;20038;-71
2023/08/21 07:01:55;;;;;;;14.18;5.90;;;18.20;93.90;;;;;;5023119;28;20108;-72
2023/08/21 07:04:20;;;;;;;13.85;4.65;;;18.20;93.40;;;;;;5030190;28;20120;-72
2023/08/21 07:06:46;;;;;;;16.23;4.38;;;18.30;93.10;;;;;;5039394;28;20045;-73
2023/08/21 07:09:11;;;;;;;9.10;4.15;;;18.40;92.80;;;;;;5028926;28;20420;-72
2023/08/21 07:11:37;;;;;;;17.73;3.95;;;18.50;93.00;;;;;;5024571;28;20506;-72
2023/08/21 07:14:02;;;;;;;13.48;3.88;;;18.60;92.90;;;;;;5039729;28;20036;-71
2023/08/21 07:16:28;;;;;;;14.02;3.15;;;18.50;92.50;;;;;;5036244;28;20169;-71
2023/08/21 07:18:53;;;;;;;18.33;3.90;;;18.60;92.50;;;;;;5025753;28;20079;-72
2023/08/21 07:21:19;;;;;;;16.67;3.80;;;18.80;92.00;;;;;;5029873;28;20385;-72
2023/08/21 07:23:44;;;;;;;12.40;4.22;;;18.80;92.20;;;;;;5022101;28;20029;-72
2023/08/21 07:26:10;;;;;;;17.05;4.60;;;18.90;92.10;;;;;;5034317;28;20060;-72
2023/08/21 07:28:35;;;;;;;17.83;4.30;;;18.80;92.10;;;;;;5018145;28;20041;-72
2023/08/21 07:31:01;;;;;;;13.98;4.03;;;19.00;92.30;;;;;;5035065;28;20533;-79
2023/08/21 07:33:27;;;;;;;18.30;4.35;;;19.30;91.70;;;;;;5029516;28;20359;-73
2023/08/21 07:36:01;;;;;;;13.75;4.22;;;19.30;91.40;;;;;;5019000;28;20056;-72
2023/08/21 07:38:26;;;;;;;19.17;5.22;;;19.50;91.60;;;;;;5022459;28;20033;-71
2023/08/21 07:41:02;;;;;;;15.80;4.60;;;19.50;90.80;;;;;;5033792;28;20036;-72
2023/08/21 07:43:28;;;;;;;16.02;4.65;;;19.60;90.60;;;;;;5027011;28;20041;-72
2023/08/21 07:45:53;;;;;;;13.02;4.93;;;19.70;89.60;;;;;;5020189;28;20049;-72
2023/08/21 07:48:18;;;;;;;16.77;4.40;;;19.80;89.00;;;;;;5031765;28;20128;-71
2023/08/21 07:50:52;;;;;;;14.85;4.28;;;19.90;89.90;;;;;;5022123;28;20042;-74
2023/08/21 07:53:17;;;;;;;19.98;4.25;;;19.80;89.60;;;;;;5019290;28;20033;-71
2023/08/21 07:55:42;;;;;;;17.58;4.40;;;19.80;89.80;;;;;;5031474;28;20029;-70
2023/08/21 07:58:08;;;;;;;17.88;3.90;;;19.90;88.90;;;;;;5033768;28;20457;-71
2023/08/21 08:00:33;;;;;;;15.63;3.88;;;20.30;88.60;;;;;;5033439;28;20033;-70
2023/08/21 08:02:59;;;;;;;14.38;3.85;;;20.50;88.10;;;;;;5019716;28;20045;-73
2023/08/21 08:05:24;;;;;;;13.98;3.40;;;20.30;87.50;;;;;;5027356;28;20497;-71
2023/08/21 08:07:50;;;;;;;10.52;3.13;;;20.20;87.30;;;;;;5032395;28;20497;-70
2023/08/21 08:10:15;;;;;;;16.52;3.22;;;20.40;87.10;;;;;;5038190;28;20070;-71
2023/08/21 08:12:44;;;;;;;11.10;3.60;;;20.60;86.70;;;;;;5030474;28;20049;-72
2023/08/21 08:15:10;;;;;;;12.35;3.55;;;20.70;86.40;;;;;;5029754;28;20028;-71
2023/08/21 08:17:35;;;;;;;13.90;3.70;;;20.90;86.40;;;;;;5036638;28;20060;-70
2023/08/21 08:20:01;;;;;;;14.63;3.13;;;20.80;85.40;;;;;;5030316;28;20486;-70
2023/08/21 08:22:26;;;;;;;10.32;3.08;;;20.90;84.30;;;;;;5027041;28;20053;-70
2023/08/21 08:24:52;;;;;;;12.30;3.00;;;21.10;84.30;;;;;;5023784;28;20042;-71
2023/08/21 08:27:17;;;;;;;9.32;2.60;;;21.50;83.20;;;;;;5028434;28;20032;-71
2023/08/21 08:29:43;;;;;;;11.43;2.33;;;21.50;82.80;;;;;;5029322;28;20393;-71
2023/08/21 08:32:08;;;;;;;6.65;1.38;;;21.50;81.70;;;;;;5032324;28;20045;-71
2023/08/21 08:34:34;;;;;;;8.80;2.10;;;21.80;80.00;;;;;;5030617;28;20024;-71
2023/08/21 08:36:59;;;;;;;5.32;1.60;;;21.70;80.60;;;;;;5018369;28;20072;-72
2023/08/21 08:39:25;;;;;;;13.27;2.08;;;21.70;78.00;;;;;;5036652;28;20099;-71
2023/08/21 08:42:01;;;;;;;10.38;2.28;;;22.00;78.30;;;;;;5025663;28;20547;-71
2023/08/21 08:44:27;;;;;;;7.82;1.98;;;22.00;78.20;;;;;;5025573;28;20043;-71
2023/08/21 08:46:53;;;;;;;7.85;2.20;;;22.20;77.20;;;;;;5022936;28;20021;-72
2023/08/21 08:49:20;;;;;;;12.25;2.08;;;22.40;78.00;;;;;;5037536;28;20099;-72
2023/08/21 08:51:48;;;;;;;10.00;2.38;;;22.20;75.50;;;;;;5028084;28;20036;-72
2023/08/21 08:54:16;;;;;;;9.98;1.75;;;22.40;76.10;;;;;;5022941;28;20033;-71
2023/08/21 08:56:41;;;;;;;7.22;1.42;;;22.40;75.70;;;;;;5021344;28;20030;-71
2023/08/21 08:59:08;;;;;;;6.75;1.40;;;22.30;74.50;;;;;;5028280;28;20037;-71
2023/08/21 09:01:34;;;;;;;7.97;1.65;;;22.40;73.50;;;;;;5029688;28;20083;-70
2023/08/21 09:04:00;;;;;;;7.22;1.60;;;22.50;73.90;;;;;;5034568;28;20025;-72
2023/08/21 09:06:27;;;;;;;7.35;1.70;;;22.40;72.90;;;;;;5020528;28;20022;-72
2023/08/21 09:08:54;;;;;;;10.48;2.03;;;22.30;72.00;;;;;;5022513;28;20029;-72
2023/08/21 09:11:20;;;;;;;5.30;1.48;;;22.50;72.10;;;;;;5027115;28;20018;-71
2023/08/21 09:13:49;;;;;;;8.77;1.63;;;22.50;71.80;;;;;;5032694;28;20034;-71
2023/08/21 09:16:16;;;;;;;7.57;1.45;;;22.50;74.80;;;;;;5027424;28;20027;-71
2023/08/21 09:18:49;;;;;;;8.48;1.73;;;22.60;73.90;;;;;;5033668;28;20022;-71
2023/08/21 09:21:19;;;;;;;7.00;1.90;;;22.60;72.40;;;;;;5041022;28;20075;-71
2023/08/21 09:23:45;;;;;;;6.60;1.33;;;23.00;71.50;;;;;;5024256;28;20025;-71
2023/08/21 09:26:17;;;;;;;9.05;1.65;;;23.00;72.40;;;;;;5022830;28;20468;-72
2023/08/21 09:28:43;;;;;;;6.63;1.50;;;22.90;72.10;;;;;;5025473;28;20036;-71
2023/08/21 09:31:09;;;;;;;7.85;1.45;;;23.20;71.20;;;;;;5032848;28;20029;-71
2023/08/21 09:33:35;;;;;;;8.88;1.48;;;23.00;71.70;;;;;;5022299;28;20060;-71
2023/08/21 09:36:00;;;;;;;6.75;1.13;;;23.20;69.90;;;;;;5023496;28;20026;-71
2023/08/21 09:38:27;;;;;;;4.90;1.30;;;23.40;69.90;;;;;;5026803;28;20033;-71
2023/08/21 09:40:54;;;;;;;4.90;1.35;;;23.50;70.00;;;;;;5025288;28;20025;-71
2023/08/21 09:43:21;;;;;;;4.32;1.02;;;23.70;67.50;;;;;;5025886;28;20029;-71
2023/08/21 09:45:49;;;;;;;5.38;1.25;;;23.60;65.20;;;;;;5028208;28;20037;-72
2023/08/21 09:48:14;;;;;;;6.45;0.95;;;23.70;66.90;;;;;;5029297;28;20048;-71
2023/08/21 09:50:40;;;;;;;5.60;1.00;;;23.80;65.60;;;;;;5028988;28;20499;-71
2023/08/21 09:53:09;;;;;;;5.65;1.38;;;23.60;65.80;;;;;;5023524;28;20035;-71
2023/08/21 09:55:35;;;;;;;4.78;1.08;;;23.50;67.40;;;;;;5027524;28;20120;-71
2023/08/21 09:58:02;;;;;;;3.20;0.95;;;23.50;66.80;;;;;;5030073;28;20029;-71
2023/08/21 10:00:35;;;;;;;5.07;1.25;;;23.90;66.00;;;;;;5033372;28;20033;-72
2023/08/21 10:03:03;;;;;;;4.18;1.00;;;23.90;66.40;;;;;;5029503;28;20037;-72
2023/08/21 10:05:31;;;;;;;5.35;1.13;;;24.10;65.30;;;;;;5039183;28;20055;-72
2023/08/21 10:08:03;;;;;;;4.63;1.10;;;24.00;64.90;;;;;;5023945;28;20029;-72
2023/08/21 10:10:33;;;;;;;4.18;1.02;;;24.20;64.50;;;;;;5027313;28;20105;-72
2023/08/21 10:13:00;;;;;;;7.75;1.20;;;24.20;63.20;;;;;;5028554;28;20118;-71
2023/08/21 10:15:27;;;;;;;6.43;1.10;;;24.40;63.60;;;;;;5022153;28;20055;-72
2023/08/21 10:17:53;;;;;;;3.67;1.13;;;24.40;64.10;;;;;;5019676;28;20030;-72
2023/08/21 10:20:23;;;;;;;4.60;0.98;;;24.60;63.00;;;;;;5019276;28;20032;-72
2023/08/21 10:22:50;;;;;;;3.55;1.10;;;24.60;62.00;;;;;;5016830;28;20030;-72
2023/08/21 10:25:20;;;;;;;3.80;0.88;;;24.80;62.00;;;;;;5024977;28;20041;-72
2023/08/21 10:27:45;;;;;;;3.93;0.97;;;25.00;61.90;;;;;;5033349;28;20036;-72
2023/08/21 10:30:19;;;;;;;3.15;0.75;;;24.90;60.80;;;;;;5030247;28;20026;-71
2023/08/21 10:32:49;;;;;;;3.40;0.80;;;25.00;61.50;;;;;;5025201;28;20532;-72
2023/08/21 10:35:17;;;;;;;5.90;1.25;;;25.00;61.40;;;;;;5027088;28;20033;-72
2023/08/21 10:38:05;;;;;;;6.15;1.00;;;25.00;61.10;;;;;;5025913;28;20036;-72
2023/08/21 10:40:30;;;;;;;4.28;0.93;;;25.70;61.20;;;;;;5019873;28;20605;-72
2023/08/21 10:42:56;;;;;;;3.50;0.90;;;25.60;57.90;;;;;;5025149;28;20152;-72
2023/08/21 10:45:21;;;;;;;1.85;0.73;;;25.30;55.20;;;;;;5032186;28;20089;-72
2023/08/21 10:47:49;;;;;;;6.03;0.90;;;25.50;57.00;;;;;;5027246;28;20033;-73
2023/08/21 10:50:14;;;;;;;2.60;0.70;;;25.70;55.70;;;;;;5023984;28;20033;-72
2023/08/21 10:52:43;;;;;;;2.67;0.75;;;25.50;55.70;;;;;;5018874;28;20036;-73
2023/08/21 10:55:09;;;;;;;4.05;0.88;;;25.80;54.90;;;;;;5024754;28;20072;-72
2023/08/21 10:57:35;;;;;;;1.25;0.50;;;26.00;55.30;;;;;;5025870;28;20045;-72
2023/08/21 11:00:04;;;;;;;3.03;0.70;;;26.00;53.90;;;;;;5025384;28;20037;-80
2023/08/21 11:02:31;;;;;;;3.25;0.88;;;26.20;54.50;;;;;;5033115;28;20033;-78
2023/08/21 11:04:58;;;;;;;4.97;0.77;;;26.60;54.40;;;;;;5021370;28;20026;-80
2023/08/21 11:07:24;;;;;;;2.40;0.60;;;26.30;52.70;;;;;;5020505;28;20034;-80
2023/08/21 11:09:50;;;;;;;2.63;0.60;;;26.10;51.00;;;;;;5037078;28;20033;-78
2023/08/21 11:12:20;;;;;;;3.33;0.85;;;26.30;52.20;;;;;;5027809;28;20030;-79
2023/08/21 11:14:46;;;;;;;3.05;0.63;;;26.30;51.30;;;;;;5018913;28;20390;-78
2023/08/21 11:17:12;;;;;;;1.75;0.57;;;26.70;50.40;;;;;;5023162;28;20038;-77
2023/08/21 11:19:39;;;;;;;4.85;0.80;;;26.90;50.30;;;;;;5019004;28;20559;-78
2023/08/21 11:22:05;;;;;;;3.10;0.77;;;26.80;50.00;;;;;;5018661;28;20493;-76
2023/08/21 11:24:51;;;;;;;2.00;0.70;;;27.00;49.60;;;;;;5029823;28;20124;-74
2023/08/21 11:27:18;;;;;;;2.10;0.70;;;26.50;50.80;;;;;;5027003;28;20045;-73
2023/08/21 11:29:49;;;;;;;2.83;0.60;;;26.30;50.80;;;;;;5023838;28;20028;-76
2023/08/21 11:32:23;;;;;;;2.42;0.77;;;26.90;51.00;;;;;;5031311;28;20390;-74
2023/08/21 11:34:53;;;;;;;3.63;0.90;;;26.90;49.80;;;;;;5031702;28;20497;-74
2023/08/21 11:37:20;;;;;;;;;;;27.00;50.70;;;;;;5016715;28;20033;-73
2023/08/21 11:39:54;;;;;;;2.33;0.98;;;27.00;48.70;;;;;;5027476;28;19912;-74
2023/08/21 11:42:29;;;;;;;3.33;0.68;;;27.30;49.00;;;;;;5027214;28;20504;-74
2023/08/21 11:44:55;;;;;;;2.53;0.90;;;27.10;49.20;;;;;;5026778;28;20457;-72
2023/08/21 11:47:23;;;;;;;5.78;1.27;;;27.80;50.90;;;;;;5031203;28;20053;-80
2023/08/21 11:49:49;;;;;;;2.35;0.90;;;27.20;49.00;;;;;;5026402;28;20143;-73
2023/08/21 11:52:25;;;;;;;5.40;0.75;;;27.50;46.90;;;;;;5038471;28;20149;-72
2023/08/21 11:54:52;;;;;;;3.70;0.90;;;27.60;45.20;;;;;;5032235;28;20090;-73
2023/08/21 11:57:18;;;;;;;3.42;1.00;;;27.50;44.60;;;;;;5028980;28;20025;-74
2023/08/21 11:59:53;;;;;;;2.08;0.95;;;28.00;46.40;;;;;;5033095;28;20025;-73
2023/08/21 12:02:24;;;;;;;3.42;0.85;;;28.00;46.50;;;;;;5029339;28;20032;-73
2023/08/21 12:04:53;;;;;;;2.65;0.77;;;28.00;46.20;;;;;;5027554;28;20032;-73
2023/08/21 12:07:19;;;;;;;2.40;0.65;;;28.20;45.80;;;;;;5022484;28;20067;-73
2023/08/21 12:09:51;;;;;;;1.92;0.52;;;28.70;43.00;;;;;;5030076;28;20030;-72
2023/08/21 12:12:16;;;;;;;2.78;0.70;;;28.90;43.00;;;;;;5030632;28;20531;-72
2023/08/21 12:14:42;;;;;;;4.15;0.90;;;29.00;45.10;;;;;;5035336;28;20030;-73
2023/08/21 12:17:07;;;;;;;2.45;0.80;;;28.50;44.00;;;;;;5034100;28;20503;-72
2023/08/21 12:19:33;;;;;;;3.85;0.90;;;28.10;44.30;;;;;;5040197;28;20029;-72
2023/08/21 12:21:58;;;;;;;1.92;0.60;;;28.50;45.00;;;;;;5033096;28;20033;-72
2023/08/21 12:24:24;;;;;;;4.63;0.93;;;28.40;42.90;;;;;;5027045;28;20034;-71
2023/08/21 12:26:50;;;;;;;3.63;0.88;;;28.00;42.90;;;;;;5033132;28;20546;-73
2023/08/21 12:29:15;;;;;;;2.92;0.88;;;28.20;42.60;;;;;;5028545;28;20108;-73
2023/08/21 12:31:41;;;;;;;4.93;1.02;;;28.60;42.30;;;;;;5045367;28;20098;-73
2023/08/21 12:34:06;;;;;;;2.72;0.80;;;28.00;44.00;;;;;;5027920;28;20037;-73